createdAt,value
2023-03-16T00:01:22.943Z,98678.63
2023-03-16T00:03:55.346Z,98668.78
2023-03-16T00:09:20.450Z,98663.84
2023-03-16T00:11:53.835Z,98679.63
2023-03-16T00:14:26.670Z,98665.59
2023-03-16T00:16:59.635Z,98676.34
2023-03-16T00:19:35.136Z,98669.03
2023-03-16T00:22:10.831Z,98681.38
2023-03-16T00:24:43.374Z,98671.84
2023-03-16T00:27:16.667Z,98670.13
2023-03-16T00:29:56.236Z,98675.13
2023-03-16T00:32:34.669Z,98704.97
2023-03-16T00:35:09.562Z,98703.97
2023-03-16T00:37:44.018Z,98707.13
2023-03-16T00:40:17.622Z,98701.16
2023-03-16T00:45:44.878Z,98701.44
2023-03-16T00:48:21.557Z,98689.22
2023-03-16T00:50:54.446Z,98677.72
2023-03-16T00:53:27.654Z,98691.25
2023-03-16T00:56:03.350Z,98663.91
2023-03-16T00:58:39.487Z,98677.09
2023-03-16T01:01:19.277Z,98666.44
2023-03-16T01:03:52.317Z,98662.81
2023-03-16T01:06:24.801Z,98664.06
2023-03-16T01:08:58.459Z,98670.50
2023-03-16T01:11:34.654Z,98670.31
2023-03-16T01:14:06.719Z,98653.00
2023-03-16T01:16:39.996Z,98661.47
2023-03-16T01:19:13.317Z,98624.03
2023-03-16T01:21:45.769Z,98659.91
2023-03-16T01:24:18.063Z,98658.41
2023-03-16T01:26:50.803Z,98640.94
2023-03-16T01:29:26.660Z,98645.66
2023-03-16T01:32:02.555Z,98651.06
2023-03-16T01:34:35.357Z,98635.97
2023-03-16T01:37:08.368Z,98640.97
2023-03-16T01:39:49.562Z,98639.53
2023-03-16T01:42:22.010Z,98636.69
2023-03-16T01:45:02.013Z,98653.22
2023-03-16T01:47:39.936Z,98636.94
2023-03-16T01:50:18.451Z,98620.69
2023-03-16T01:52:51.056Z,98627.97
2023-03-16T01:55:23.908Z,98623.25
2023-03-16T01:57:56.283Z,98624.41
2023-03-16T02:00:32.326Z,98616.81
2023-03-16T02:03:20.255Z,98616.44
2023-03-16T02:06:05.840Z,98620.69
2023-03-16T02:08:41.044Z,98638.69
2023-03-16T02:11:17.988Z,98635.31
2023-03-16T02:14:09.557Z,98632.91
2023-03-16T02:16:42.030Z,98619.56
2023-03-16T02:19:30.722Z,98607.34
2023-03-16T02:22:07.897Z,98630.91
2023-03-16T02:24:40.667Z,98620.41
2023-03-16T02:27:40.799Z,98622.25
2023-03-16T02:30:19.237Z,98622.06
2023-03-16T02:33:05.176Z,98623.03
2023-03-16T02:35:37.595Z,98605.81
2023-03-16T02:38:09.908Z,98603.59
2023-03-16T02:41:01.334Z,98596.09
2023-03-16T02:43:38.864Z,98606.00
2023-03-16T02:46:25.927Z,98605.72
2023-03-16T02:49:09.092Z,98585.81
2023-03-16T02:51:44.673Z,98585.13
2023-03-16T02:54:17.822Z,98596.97
2023-03-16T02:56:50.172Z,98579.16
2023-03-16T02:59:22.568Z,98557.25
2023-03-16T03:01:54.698Z,98566.84
2023-03-16T03:04:49.792Z,98574.38
2023-03-16T03:07:22.680Z,98570.44
2023-03-16T03:10:07.305Z,98576.28
2023-03-16T03:12:40.101Z,98568.41
2023-03-16T03:15:15.720Z,98578.59
2023-03-16T03:18:08.990Z,98562.25
2023-03-16T03:20:41.793Z,98563.13
2023-03-16T03:23:17.465Z,98571.59
2023-03-16T03:25:49.472Z,98566.75
2023-03-16T03:31:22.132Z,98560.31
2023-03-16T03:33:56.805Z,98553.22
2023-03-16T03:36:28.741Z,98544.47
2023-03-16T03:39:05.347Z,98554.94
2023-03-16T03:41:38.843Z,98547.84
2023-03-16T03:44:13.070Z,98562.53
2023-03-16T03:46:45.138Z,98560.91
2023-03-16T03:49:18.388Z,98549.94
2023-03-16T03:52:12.671Z,98553.69
2023-03-16T03:54:45.498Z,98544.38
2023-03-16T03:57:40.138Z,98564.09
2023-03-16T04:00:14.145Z,98553.03
2023-03-16T04:03:05.382Z,98553.59
2023-03-16T04:05:46.736Z,98538.97
2023-03-16T04:08:18.841Z,98540.31
2023-03-16T04:10:51.925Z,98546.38
2023-03-16T04:13:26.196Z,98538.28
2023-03-16T04:16:03.053Z,98560.13
2023-03-16T04:18:42.480Z,98560.22
2023-03-16T04:21:18.159Z,98552.72
2023-03-16T04:23:55.270Z,98559.41
2023-03-16T04:26:35.727Z,98561.34
2023-03-16T04:29:09.165Z,98554.03
2023-03-16T04:31:42.829Z,98563.84
2023-03-16T04:34:15.975Z,98557.97
2023-03-16T04:36:48.716Z,98546.84
2023-03-16T04:39:21.222Z,98538.50
2023-03-16T04:41:54.867Z,98556.31
2023-03-16T04:44:30.098Z,98534.56
2023-03-16T04:47:03.522Z,98521.16
2023-03-16T04:49:42.820Z,98547.94
2023-03-16T04:52:16.302Z,98545.22
2023-03-16T04:54:48.684Z,98546.97
2023-03-16T04:57:23.040Z,98534.56
2023-03-16T04:59:57.901Z,98517.66
2023-03-16T05:02:36.727Z,98516.78
2023-03-16T05:05:10.765Z,98524.88
2023-03-16T05:07:47.258Z,98527.75
2023-03-16T05:10:20.593Z,98519.97
2023-03-16T05:12:53.039Z,98524.13
2023-03-16T05:15:48.839Z,98518.25
2023-03-16T05:18:28.673Z,98531.47
2023-03-16T05:21:02.260Z,98507.75
2023-03-16T05:23:46.237Z,98516.56
2023-03-16T05:26:36.857Z,98509.84
2023-03-16T05:29:14.378Z,98512.22
2023-03-16T05:31:48.113Z,98520.09
2023-03-16T05:34:24.480Z,98522.91
2023-03-16T05:36:57.256Z,98520.75
2023-03-16T05:39:31.489Z,98511.34
2023-03-16T05:42:05.761Z,98522.38
2023-03-16T05:44:47.780Z,98529.88
2023-03-16T05:47:32.564Z,98507.31
2023-03-16T05:50:09.415Z,98525.16
2023-03-16T05:52:46.749Z,98538.53
2023-03-16T05:55:25.316Z,98530.47
2023-03-16T05:58:03.813Z,98533.47
2023-03-16T06:00:40.525Z,98539.22
2023-03-16T06:03:31.852Z,98524.38
2023-03-16T06:06:05.347Z,98545.13
2023-03-16T06:08:46.190Z,98537.34
2023-03-16T06:11:18.724Z,98542.81
2023-03-16T06:13:51.803Z,98541.25
2023-03-16T06:16:24.624Z,98535.19
2023-03-16T06:18:59.846Z,98553.44
2023-03-16T06:21:33.563Z,98537.19
2023-03-16T06:24:13.926Z,98540.09
2023-03-16T06:26:45.991Z,98540.59
2023-03-16T06:29:20.403Z,98535.97
2023-03-16T06:31:54.641Z,98526.94
2023-03-16T06:34:29.356Z,98546.56
2023-03-16T06:37:02.774Z,98549.09
2023-03-16T06:39:36.365Z,98545.41
2023-03-16T06:42:08.656Z,98544.41
2023-03-16T06:44:42.102Z,98539.84
2023-03-16T06:47:17.917Z,98523.88
2023-03-16T06:49:51.738Z,98545.47
2023-03-16T06:52:27.260Z,98549.38
2023-03-16T06:54:59.178Z,98555.16
2023-03-16T06:57:37.039Z,98556.66
2023-03-16T07:00:15.323Z,98550.78
2023-03-16T07:02:50.221Z,98549.69
2023-03-16T07:05:22.403Z,98539.13
2023-03-16T07:10:51.927Z,98535.66
2023-03-16T07:13:24.935Z,98501.22
2023-03-16T07:15:56.859Z,98502.56
2023-03-16T07:18:32.230Z,98492.75
2023-03-16T07:21:24.088Z,98485.25
2023-03-16T07:23:56.710Z,98481.78
2023-03-16T07:26:35.536Z,98479.31
2023-03-16T07:29:08.071Z,98461.25
2023-03-16T07:31:43.567Z,98474.25
2023-03-16T07:34:21.278Z,98464.19
2023-03-16T07:37:00.515Z,98458.06
2023-03-16T07:39:36.261Z,98452.31
2023-03-16T07:42:15.077Z,98439.03
2023-03-16T07:44:59.009Z,98437.25
2023-03-16T07:47:31.681Z,98460.25
2023-03-16T07:50:12.511Z,98472.13
2023-03-16T07:52:48.955Z,98463.63
2023-03-16T07:55:21.497Z,98477.03
2023-03-16T07:57:55.667Z,98473.53
2023-03-16T08:00:34.805Z,98488.72
2023-03-16T08:03:10.436Z,98472.38
2023-03-16T08:05:43.746Z,98470.28
2023-03-16T08:08:23.261Z,98457.34
2023-03-16T08:10:56.733Z,98453.78
2023-03-16T08:13:44.546Z,98483.34
2023-03-16T08:19:34.324Z,98477.03
2023-03-16T08:22:09.302Z,98471.66
2023-03-16T08:24:47.108Z,98489.69
2023-03-16T08:27:23.141Z,98489.75
2023-03-16T08:30:06.422Z,98461.28
2023-03-16T08:33:01.611Z,98474.00
2023-03-16T08:35:37.264Z,98468.41
2023-03-16T08:38:10.653Z,98489.25
2023-03-16T08:40:49.065Z,98475.31
2023-03-16T08:47:05.482Z,98505.75
2023-03-16T08:49:40.036Z,98482.03
2023-03-16T08:52:18.792Z,98483.19
2023-03-16T08:55:02.921Z,98486.06
2023-03-16T08:57:36.175Z,98467.06
2023-03-16T09:00:13.406Z,98479.16
2023-03-16T09:02:47.345Z,98465.50
2023-03-16T09:05:19.671Z,98458.53
2023-03-16T09:07:52.123Z,98450.91
2023-03-16T09:10:25.388Z,98456.97
2023-03-16T09:12:59.615Z,98429.72
2023-03-16T09:15:32.147Z,98429.88
2023-03-16T09:18:06.166Z,98433.03
2023-03-16T09:20:38.404Z,98413.63
2023-03-16T09:23:10.767Z,98413.97
2023-03-16T09:25:44.872Z,98421.84
2023-03-16T09:28:18.357Z,98421.09
2023-03-16T09:30:52.493Z,98414.75
2023-03-16T09:33:26.011Z,98411.66
2023-03-16T09:36:00.422Z,98401.53
2023-03-16T09:38:33.022Z,98415.41
2023-03-16T09:41:37.504Z,98406.66
2023-03-16T09:45:06.764Z,98406.31
2023-03-16T09:47:42.312Z,98401.84
2023-03-16T09:50:26.508Z,98412.69
2023-03-16T09:53:12.853Z,98429.09
2023-03-16T09:55:50.096Z,98429.25
2023-03-16T09:58:23.784Z,98406.88
2023-03-16T10:01:30.858Z,98414.81
2023-03-16T10:04:32.373Z,98398.97
2023-03-16T10:07:21.605Z,98409.59
2023-03-16T10:10:23.587Z,98405.25
2023-03-16T10:13:00.852Z,98395.34
2023-03-16T10:15:35.685Z,98396.09
2023-03-16T10:18:43.362Z,98399.63
2023-03-16T10:21:19.397Z,98396.91
2023-03-16T10:23:55.172Z,98402.31
2023-03-16T10:26:39.542Z,98399.34
2023-03-16T10:29:14.644Z,98397.34
2023-03-16T10:31:47.868Z,98380.19
2023-03-16T10:34:20.733Z,98394.66
2023-03-16T10:36:57.554Z,98372.50
2023-03-16T10:39:37.075Z,98380.72
2023-03-16T10:42:21.669Z,98383.00
2023-03-16T10:45:01.884Z,98381.50
2023-03-16T10:47:35.492Z,98378.38
2023-03-16T10:50:17.012Z,98386.22
2023-03-16T10:52:49.854Z,98367.44
2023-03-16T10:55:32.789Z,98393.78
2023-03-16T10:58:05.328Z,98397.09
2023-03-16T11:00:43.680Z,98385.84
2023-03-16T11:03:32.651Z,98379.88
2023-03-16T11:06:20.455Z,98377.59
2023-03-16T11:08:55.273Z,98372.41
2023-03-16T11:11:32.499Z,98363.91
2023-03-16T11:14:14.134Z,98350.56
2023-03-16T11:17:10.706Z,98364.66
2023-03-16T11:20:01.272Z,98371.03
2023-03-16T11:22:33.734Z,98359.22
2023-03-16T11:25:27.276Z,98374.59
2023-03-16T11:28:13.645Z,98365.00
2023-03-16T11:31:15.091Z,98361.59
2023-03-16T11:33:49.384Z,98374.22
2023-03-16T11:36:50.872Z,98373.38
2023-03-16T11:39:49.504Z,98367.22
2023-03-16T11:42:39.408Z,98365.16
2023-03-16T11:45:56.938Z,98360.28
2023-03-16T11:48:50.758Z,98346.53
2023-03-16T11:51:48.278Z,98322.06
2023-03-16T11:54:39.826Z,98354.06
2023-03-16T11:57:59.911Z,98356.38
2023-03-16T12:00:41.889Z,98352.16
2023-03-16T12:03:46.504Z,98337.31
2023-03-16T12:06:42.415Z,98332.09
2023-03-16T12:09:47.891Z,98329.28
2023-03-16T12:12:34.358Z,98327.06
2023-03-16T12:15:48.153Z,98339.84
2023-03-16T12:18:27.398Z,98331.28
2023-03-16T12:21:07.495Z,98333.78
2023-03-16T12:23:52.589Z,98330.72
2023-03-16T12:26:30.093Z,98317.97
2023-03-16T12:29:17.323Z,98319.53
2023-03-16T12:32:26.034Z,98315.34
2023-03-16T12:35:30.659Z,98317.50
2023-03-16T12:38:39.566Z,98315.19
2023-03-16T12:41:49.632Z,98307.75
2023-03-16T12:44:42.469Z,98294.84
2023-03-16T12:47:48.436Z,98297.78
2023-03-16T12:50:21.784Z,98300.66
2023-03-16T12:52:54.443Z,98300.03
2023-03-16T12:55:44.930Z,98300.13
2023-03-16T12:58:17.891Z,98285.16
2023-03-16T13:00:59.039Z,98295.94
2023-03-16T13:03:31.371Z,98289.00
2023-03-16T13:06:04.401Z,98291.06
2023-03-16T13:08:48.905Z,98289.28
2023-03-16T13:11:20.899Z,98288.03
2023-03-16T13:14:09.665Z,98274.88
2023-03-16T13:16:43.598Z,98275.34
2023-03-16T13:19:30.246Z,98275.72
2023-03-16T13:22:22.321Z,98263.53
2023-03-16T13:25:18.257Z,98257.28
2023-03-16T13:27:55.270Z,98255.91
2023-03-16T13:30:47.454Z,98253.31
2023-03-16T13:33:23.398Z,98251.38
2023-03-16T13:35:57.978Z,98255.31
2023-03-16T13:38:30.386Z,98243.53
2023-03-16T13:41:09.737Z,98234.06
2023-03-16T13:43:44.712Z,98235.50
2023-03-16T13:46:20.568Z,98238.13
2023-03-16T13:48:52.925Z,98236.88
2023-03-16T13:51:25.895Z,98239.41
2023-03-16T13:53:58.688Z,98228.53
2023-03-16T13:56:33.500Z,98230.44
2023-03-16T13:59:07.895Z,98233.44
2023-03-16T14:01:45.935Z,98223.72
2023-03-16T14:04:20.141Z,98223.66
2023-03-16T14:06:57.327Z,98214.88
2023-03-16T14:09:34.774Z,98209.25
2023-03-16T14:12:06.931Z,98205.84
2023-03-16T14:14:41.639Z,98203.41
2023-03-16T14:17:19.772Z,98197.28
2023-03-16T14:19:59.163Z,98205.72
2023-03-16T14:22:37.774Z,98199.53
2023-03-16T14:25:23.971Z,98205.00
2023-03-16T14:28:07.539Z,98205.19
2023-03-16T14:30:52.593Z,98208.22
2023-03-16T14:33:35.006Z,98202.53
2023-03-16T14:36:13.561Z,98200.69
2023-03-16T14:38:54.357Z,98196.31
2023-03-16T14:41:31.731Z,98187.78
2023-03-16T14:44:04.553Z,98189.81
2023-03-16T14:46:42.596Z,98180.38
2023-03-16T14:49:21.507Z,98165.94
2023-03-16T14:51:59.650Z,98183.50
2023-03-16T14:54:31.990Z,98181.97
2023-03-16T14:57:06.373Z,98177.59
2023-03-16T14:59:38.642Z,98183.66
2023-03-16T15:02:20.349Z,98187.25
2023-03-16T15:04:52.797Z,98181.06
2023-03-16T15:07:29.933Z,98183.00
2023-03-16T15:10:23.568Z,98179.03
2023-03-16T15:13:04.505Z,98186.31
2023-03-16T15:15:36.445Z,98179.13
2023-03-16T15:18:08.981Z,98187.22
2023-03-16T15:20:45.544Z,98183.19
2023-03-16T15:23:17.648Z,98181.16
2023-03-16T15:25:52.940Z,98185.13
2023-03-16T15:28:27.343Z,98187.41
2023-03-16T15:31:02.383Z,98201.84
2023-03-16T15:33:34.346Z,98201.59
2023-03-16T15:36:15.987Z,98200.81
2023-03-16T15:38:51.390Z,98205.63
2023-03-16T15:41:25.818Z,98201.28
2023-03-16T15:44:00.851Z,98200.78
2023-03-16T15:46:34.198Z,98202.25
2023-03-16T15:49:06.445Z,98204.69
2023-03-16T15:51:39.092Z,98200.25
2023-03-16T15:54:12.136Z,98204.25
2023-03-16T15:56:53.843Z,98208.53
2023-03-16T15:59:31.928Z,98197.59
2023-03-16T16:02:09.234Z,98202.78
2023-03-16T16:04:41.533Z,98201.81
2023-03-16T16:07:14.620Z,98192.53
2023-03-16T16:09:47.792Z,98192.00
2023-03-16T16:12:27.103Z,98186.66
2023-03-16T16:15:00.663Z,98192.59
2023-03-16T16:17:50.472Z,98193.91
2023-03-16T16:20:32.548Z,98193.34
2023-03-16T16:23:05.271Z,98180.78
2023-03-16T16:25:41.446Z,98174.22
2023-03-16T16:28:22.644Z,98176.22
2023-03-16T16:30:55.881Z,98175.66
2023-03-16T16:33:29.702Z,98179.09
2023-03-16T16:36:07.291Z,98179.13
2023-03-16T16:38:39.872Z,98177.75
2023-03-16T16:41:25.613Z,98183.13
2023-03-16T16:44:00.318Z,98179.28
2023-03-16T16:46:41.040Z,98178.78
2023-03-16T16:49:24.141Z,98178.75
2023-03-16T16:51:57.629Z,98173.47
2023-03-16T16:54:31.623Z,98174.91
2023-03-16T16:57:05.144Z,98172.41
2023-03-16T16:59:37.955Z,98171.88
2023-03-16T17:02:31.621Z,98176.69
2023-03-16T17:05:04.051Z,98172.00
2023-03-16T17:07:37.751Z,98172.72
2023-03-16T17:10:16.641Z,98170.16
2023-03-16T17:12:51.290Z,98162.44
2023-03-16T17:15:28.316Z,98163.09
2023-03-16T17:18:14.376Z,98165.06
2023-03-16T17:20:46.971Z,98175.28
2023-03-16T17:23:33.496Z,98173.75
2023-03-16T17:26:19.444Z,98174.50
2023-03-16T17:29:03.656Z,98176.34
2023-03-16T17:31:37.735Z,98179.94
2023-03-16T17:34:24.399Z,98169.50
2023-03-16T17:36:57.204Z,98169.50
2023-03-16T17:39:34.410Z,98168.84
2023-03-16T17:42:14.230Z,98173.59
2023-03-16T17:44:49.800Z,98163.09
2023-03-16T17:47:28.332Z,98162.53
2023-03-16T17:50:01.018Z,98158.03
2023-03-16T17:52:33.672Z,98169.31
2023-03-16T17:55:06.169Z,98160.75
2023-03-16T17:57:39.417Z,98162.09
2023-03-16T18:00:28.669Z,98160.81
2023-03-16T18:03:17.646Z,98158.22
2023-03-16T18:05:49.689Z,98154.91
2023-03-16T18:08:30.536Z,98141.06
2023-03-16T18:11:06.735Z,98145.69
2023-03-16T18:13:41.339Z,98141.75
2023-03-16T18:16:23.489Z,98140.44
2023-03-16T18:19:00.776Z,98137.81
2023-03-16T18:21:35.053Z,98134.50
2023-03-16T18:24:19.624Z,98134.53
2023-03-16T18:26:52.906Z,98135.84
2023-03-16T18:29:24.882Z,98135.19
2023-03-16T18:31:59.547Z,98126.63
2023-03-16T18:34:34.812Z,98128.59
2023-03-16T18:37:38.880Z,98137.81
2023-03-16T18:40:17.595Z,98140.44
2023-03-16T18:42:52.131Z,98137.16
2023-03-16T18:45:26.319Z,98125.97
2023-03-16T18:47:58.845Z,98130.56
2023-03-16T18:50:30.856Z,98129.91
2023-03-16T18:53:04.602Z,98127.22
2023-03-16T18:55:44.784Z,98125.91
2023-03-16T18:58:22.302Z,98127.88
2023-03-16T19:00:58.113Z,98123.25
2023-03-16T19:03:39.976Z,98131.19
2023-03-16T19:06:23.853Z,98124.56
2023-03-16T19:09:04.733Z,98131.13
2023-03-16T19:11:43.727Z,98121.91
2023-03-16T19:14:28.324Z,98127.16
2023-03-16T19:17:01.283Z,98134.34
2023-03-16T19:19:33.168Z,98124.41
2023-03-16T19:22:17.661Z,98106.78
2023-03-16T19:24:54.280Z,98122.53
2023-03-16T19:27:36.195Z,98123.72
2023-03-16T19:30:27.063Z,98120.97
2023-03-16T19:33:00.399Z,98126.84
2023-03-16T19:35:50.207Z,98126.09
2023-03-16T19:38:25.368Z,98124.06
2023-03-16T19:41:00.599Z,98122.00
2023-03-16T19:43:33.207Z,98112.19
2023-03-16T19:46:05.291Z,98115.50
2023-03-16T19:48:37.812Z,98122.66
2023-03-16T19:51:15.133Z,98126.56
2023-03-16T19:53:48.476Z,98118.59
2023-03-16T19:56:24.362Z,98123.16
2023-03-16T19:58:58.622Z,98123.13
2023-03-16T20:01:34.904Z,98109.34
2023-03-16T20:04:18.189Z,98106.72
2023-03-16T20:06:51.541Z,98114.50
2023-03-16T20:09:23.710Z,98108.56
2023-03-16T20:11:56.732Z,98109.78
2023-03-16T20:14:33.046Z,98101.88
2023-03-16T20:17:11.305Z,98096.03
2023-03-16T20:19:43.900Z,98087.53
2023-03-16T20:22:23.768Z,98084.94
2023-03-16T20:24:57.908Z,98083.63
2023-03-16T20:27:31.129Z,98088.88
2023-03-16T20:30:05.038Z,98086.19
2023-03-16T20:32:40.156Z,98086.09
2023-03-16T20:35:17.530Z,98084.66
2023-03-16T20:37:52.038Z,98091.78
2023-03-16T20:40:24.427Z,98083.22
2023-03-16T20:42:56.552Z,98098.28
2023-03-16T20:45:30.440Z,98093.00
2023-03-16T20:48:03.222Z,98093.66
2023-03-16T20:50:35.702Z,98088.44
2023-03-16T20:53:08.910Z,98083.78
2023-03-16T20:55:41.006Z,98079.88
2023-03-16T20:58:30.885Z,98082.53
2023-03-16T21:01:03.604Z,98093.06
2023-03-16T21:03:37.408Z,98086.78
2023-03-16T21:06:22.779Z,98093.94
2023-03-16T21:08:58.393Z,98096.56
2023-03-16T21:11:38.765Z,98094.66
2023-03-16T21:14:18.138Z,98087.97
2023-03-16T21:16:51.269Z,98081.28
2023-03-16T21:19:24.022Z,98076.72
2023-03-16T21:21:57.251Z,98084.53
2023-03-16T21:24:29.410Z,98086.41
2023-03-16T21:27:02.382Z,98086.91
2023-03-16T21:29:34.298Z,98086.06
2023-03-16T21:32:23.130Z,98085.81
2023-03-16T21:34:56.630Z,98080.63
2023-03-16T21:37:30.622Z,98078.47
2023-03-16T21:40:03.196Z,98080.53
2023-03-16T21:42:36.383Z,98076.28
2023-03-16T21:45:09.478Z,98082.75
2023-03-16T21:47:43.056Z,98081.38
2023-03-16T21:50:31.685Z,98073.03
2023-03-16T21:53:04.847Z,98069.50
2023-03-16T21:55:36.855Z,98070.66
2023-03-16T21:58:10.913Z,98058.16
2023-03-16T22:00:43.597Z,98056.16
2023-03-16T22:03:49.618Z,98048.69
2023-03-16T22:06:25.294Z,98051.56
2023-03-16T22:08:59.621Z,98035.88
2023-03-16T22:11:32.031Z,98038.41
2023-03-16T22:14:04.630Z,98034.50
2023-03-16T22:16:38.238Z,98031.84
2023-03-16T22:19:14.535Z,98025.72
2023-03-16T22:21:48.808Z,98023.22
2023-03-16T22:24:24.047Z,98020.56
2023-03-16T22:26:57.031Z,98019.19
2023-03-16T22:29:31.661Z,98017.03
2023-03-16T22:32:08.822Z,98016.38
2023-03-16T22:37:26.850Z,98004.03
2023-03-16T22:39:58.905Z,98009.09
2023-03-16T22:42:39.049Z,98011.06
2023-03-16T22:45:28.368Z,98009.69
2023-03-16T22:48:13.493Z,98011.56
2023-03-16T22:50:47.109Z,98012.53
2023-03-16T22:53:28.460Z,98016.38
2023-03-16T22:56:00.520Z,98013.75
2023-03-16T22:58:49.674Z,98011.09
2023-03-16T23:01:34.469Z,98016.34
2023-03-16T23:04:23.327Z,98022.94
2023-03-16T23:06:56.912Z,98019.59
2023-03-16T23:09:29.693Z,98019.53
2023-03-16T23:12:03.581Z,98019.91
2023-03-16T23:14:38.072Z,98019.09
2023-03-16T23:17:19.578Z,98022.88
2023-03-16T23:19:51.940Z,98018.28
2023-03-16T23:22:24.991Z,98022.06
2023-03-16T23:24:56.875Z,98022.00
2023-03-16T23:27:29.503Z,98017.41
2023-03-16T23:30:01.814Z,98024.78
2023-03-16T23:32:34.872Z,98024.69
2023-03-16T23:35:21.862Z,98017.88
2023-03-16T23:37:55.185Z,98019.66
2023-03-16T23:40:29.255Z,98010.53
2023-03-16T23:43:02.379Z,98011.41
2023-03-16T23:45:41.427Z,98007.09
2023-03-16T23:48:18.893Z,98011.47
2023-03-16T23:50:55.608Z,98014.00
2023-03-16T23:53:27.517Z,98007.44
2023-03-16T23:56:00.234Z,98001.63
2023-03-16T23:58:32.092Z,97998.34
